createdAt,value
2023-03-16T00:01:05.808Z,1.90
2023-03-16T00:03:32.248Z,2.10
2023-03-16T00:05:58.684Z,2.42
2023-03-16T00:08:25.101Z,2.40
2023-03-16T00:10:54.011Z,2.00
2023-03-16T00:13:26.279Z,2.73
2023-03-16T00:15:58.831Z,2.10
2023-03-16T00:18:28.330Z,1.92
2023-03-16T00:20:59.886Z,2.63
2023-03-16T00:23:29.823Z,2.35
2023-03-16T00:25:58.613Z,2.40
2023-03-16T00:28:27.053Z,2.60
2023-03-16T00:30:59.012Z,2.40
2023-03-16T00:33:27.246Z,3.13
2023-03-16T00:36:02.219Z,2.60
2023-03-16T00:38:31.826Z,3.00
2023-03-16T00:40:58.296Z,2.75
2023-03-16T00:43:27.490Z,3.10
2023-03-16T00:46:06.458Z,2.70
2023-03-16T00:48:34.581Z,3.38
2023-03-16T00:51:04.232Z,2.73
2023-03-16T00:53:31.196Z,2.75
2023-03-16T00:55:57.597Z,2.67
2023-03-16T00:58:24.553Z,3.67
2023-03-16T01:00:53.262Z,3.17
2023-03-16T01:03:19.729Z,2.60
2023-03-16T01:05:46.052Z,2.65
2023-03-16T01:08:12.408Z,3.53
2023-03-16T01:10:40.458Z,2.63
2023-03-16T01:13:07.457Z,2.90
2023-03-16T01:15:34.819Z,3.17
2023-03-16T01:18:01.852Z,3.03
2023-03-16T01:20:32.194Z,3.15
2023-03-16T01:22:58.843Z,3.00
2023-03-16T01:25:25.319Z,2.88
2023-03-16T01:27:53.530Z,2.83
2023-03-16T01:30:20.953Z,2.92
2023-03-16T01:32:47.427Z,3.17
2023-03-16T01:35:13.775Z,2.40
2023-03-16T01:37:40.130Z,3.10
2023-03-16T01:40:08.202Z,2.70
2023-03-16T01:42:45.152Z,3.30
2023-03-16T01:45:49.191Z,3.15
2023-03-16T01:48:15.587Z,3.50
2023-03-16T01:50:42.366Z,3.35
2023-03-16T01:53:10.539Z,3.17
2023-03-16T01:55:37.447Z,3.00
2023-03-16T01:58:03.909Z,3.45
2023-03-16T02:00:33.792Z,3.38
2023-03-16T02:03:15.578Z,3.42
2023-03-16T02:05:47.365Z,3.10
2023-03-16T02:08:13.891Z,3.22
2023-03-16T02:10:40.787Z,2.83
2023-03-16T02:13:07.880Z,2.72
2023-03-16T02:15:35.955Z,3.03
2023-03-16T02:18:02.823Z,3.57
2023-03-16T02:20:58.227Z,3.08
2023-03-16T02:23:25.332Z,3.35
2023-03-16T02:26:01.779Z,3.40
2023-03-16T02:28:44.999Z,3.05
2023-03-16T02:31:12.258Z,3.03
2023-03-16T02:33:39.928Z,3.65
2023-03-16T02:36:06.802Z,3.50
2023-03-16T02:38:33.201Z,2.97
2023-03-16T02:41:09.560Z,3.20
2023-03-16T02:43:38.022Z,3.47
2023-03-16T02:46:05.159Z,2.42
2023-03-16T02:48:47.154Z,3.47
2023-03-16T02:51:13.707Z,3.22
2023-03-16T02:53:40.079Z,3.42
2023-03-16T02:56:07.092Z,2.97
2023-03-16T02:58:33.451Z,3.53
2023-03-16T03:00:59.818Z,3.75
2023-03-16T03:03:26.182Z,2.75
2023-03-16T03:05:52.839Z,3.63
2023-03-16T03:08:21.509Z,3.20
2023-03-16T03:10:47.971Z,3.45
2023-03-16T03:13:14.328Z,4.13
2023-03-16T03:15:40.741Z,2.80
2023-03-16T03:18:07.222Z,4.03
2023-03-16T03:20:35.396Z,3.00
2023-03-16T03:23:03.172Z,3.53
2023-03-16T03:25:29.700Z,2.78
2023-03-16T03:27:56.086Z,2.92
2023-03-16T03:30:24.596Z,3.42
2023-03-16T03:32:52.877Z,3.13
2023-03-16T03:35:21.261Z,3.47
2023-03-16T03:37:47.836Z,3.03
2023-03-16T03:40:16.863Z,3.00
2023-03-16T03:42:43.650Z,3.30
2023-03-16T03:45:14.398Z,3.07
2023-03-16T03:47:42.119Z,3.20
2023-03-16T03:50:10.333Z,2.95
2023-03-16T03:52:36.999Z,3.03
2023-03-16T03:55:03.592Z,3.00
2023-03-16T03:57:29.932Z,3.17
2023-03-16T03:59:56.259Z,3.42
2023-03-16T04:02:23.157Z,3.60
2023-03-16T04:04:49.646Z,3.40
2023-03-16T04:07:15.967Z,3.22
2023-03-16T04:09:42.321Z,2.90
2023-03-16T04:12:08.863Z,3.40
2023-03-16T04:14:35.310Z,3.53
2023-03-16T04:17:01.803Z,3.58
2023-03-16T04:19:28.496Z,3.22
2023-03-16T04:21:54.818Z,3.73
2023-03-16T04:24:22.344Z,3.03
2023-03-16T04:26:49.082Z,3.03
2023-03-16T04:29:18.023Z,2.95
2023-03-16T04:31:45.126Z,2.97
2023-03-16T04:34:11.931Z,3.57
2023-03-16T04:36:38.971Z,3.28
2023-03-16T04:39:06.595Z,3.58
2023-03-16T04:41:33.140Z,3.20
2023-03-16T04:43:59.692Z,3.75
2023-03-16T04:46:27.006Z,3.17
2023-03-16T04:48:53.894Z,3.15
2023-03-16T04:51:21.377Z,3.22
2023-03-16T04:53:47.744Z,3.53
2023-03-16T04:56:19.312Z,3.47
2023-03-16T04:58:50.407Z,3.07
2023-03-16T05:01:18.209Z,3.30
2023-03-16T05:03:44.682Z,3.05
2023-03-16T05:06:12.277Z,3.10
2023-03-16T05:08:38.880Z,2.83
2023-03-16T05:11:05.536Z,2.60
2023-03-16T05:13:31.945Z,3.03
2023-03-16T05:15:58.272Z,2.80
2023-03-16T05:18:24.909Z,2.80
2023-03-16T05:20:55.926Z,2.90
2023-03-16T05:23:23.097Z,2.90
2023-03-16T05:25:50.253Z,2.78
2023-03-16T05:28:16.953Z,2.92
2023-03-16T05:30:45.129Z,3.58
2023-03-16T05:33:11.960Z,2.75
2023-03-16T05:35:38.487Z,2.67
2023-03-16T05:38:05.138Z,2.60
2023-03-16T05:40:32.926Z,2.50
2023-03-16T05:43:00.547Z,2.80
2023-03-16T05:45:28.107Z,2.72
2023-03-16T05:47:54.643Z,2.80
2023-03-16T05:50:21.976Z,3.25
2023-03-16T05:52:48.374Z,3.17
2023-03-16T05:55:16.527Z,3.00
2023-03-16T05:57:42.953Z,3.10
2023-03-16T06:00:15.579Z,3.23
2023-03-16T06:02:43.235Z,3.65
2023-03-16T06:05:11.047Z,4.00
2023-03-16T06:07:37.451Z,3.67
2023-03-16T06:10:05.109Z,2.35
2023-03-16T06:12:32.263Z,3.10
2023-03-16T06:14:58.591Z,3.08
2023-03-16T06:17:24.981Z,2.78
2023-03-16T06:19:51.357Z,2.88
2023-03-16T06:22:18.414Z,3.03
2023-03-16T06:24:44.967Z,3.23
2023-03-16T06:27:11.626Z,3.08
2023-03-16T06:29:38.293Z,2.95
2023-03-16T06:32:05.073Z,2.63
2023-03-16T06:34:31.538Z,2.90
2023-03-16T06:36:57.917Z,2.17
2023-03-16T06:39:24.435Z,2.97
2023-03-16T06:41:50.774Z,2.70
2023-03-16T06:44:17.089Z,3.40
2023-03-16T06:46:43.459Z,3.30
2023-03-16T06:49:09.767Z,2.47
2023-03-16T06:51:36.096Z,2.63
2023-03-16T06:54:02.424Z,2.20
2023-03-16T06:56:28.803Z,2.45
2023-03-16T06:58:55.431Z,2.55
2023-03-16T07:01:22.884Z,2.20
2023-03-16T07:03:49.630Z,2.10
2023-03-16T07:06:16.578Z,2.50
2023-03-16T07:08:42.927Z,1.85
2023-03-16T07:11:09.811Z,1.98
2023-03-16T07:13:36.967Z,1.93
2023-03-16T07:16:04.785Z,2.17
2023-03-16T07:18:31.716Z,1.65
2023-03-16T07:20:58.313Z,1.90
2023-03-16T07:23:25.599Z,2.05
2023-03-16T07:25:52.610Z,1.97
2023-03-16T07:28:20.027Z,2.10
2023-03-16T07:31:02.610Z,2.10
2023-03-16T07:33:30.379Z,2.30
2023-03-16T07:35:56.791Z,1.92
2023-03-16T07:38:23.513Z,2.10
2023-03-16T07:40:52.093Z,1.85
2023-03-16T07:43:18.450Z,2.70
2023-03-16T07:45:49.914Z,1.98
2023-03-16T07:48:16.282Z,2.80
2023-03-16T07:50:43.002Z,2.40
2023-03-16T07:53:10.150Z,2.10
2023-03-16T07:55:36.789Z,2.20
2023-03-16T07:58:04.975Z,2.50
2023-03-16T08:00:35.103Z,2.45
2023-03-16T08:03:01.980Z,2.43
2023-03-16T08:05:29.016Z,2.17
2023-03-16T08:07:57.171Z,2.55
2023-03-16T08:10:23.893Z,2.13
2023-03-16T08:12:51.605Z,2.50
2023-03-16T08:15:18.030Z,2.57
2023-03-16T08:17:44.540Z,2.25
2023-03-16T08:20:14.565Z,2.42
2023-03-16T08:22:46.178Z,2.20
2023-03-16T08:25:13.484Z,2.33
2023-03-16T08:27:40.258Z,2.57
2023-03-16T08:30:11.358Z,2.20
2023-03-16T08:32:41.876Z,2.60
2023-03-16T08:35:13.406Z,2.67
2023-03-16T08:37:40.478Z,3.50
2023-03-16T08:40:10.633Z,2.03
2023-03-16T08:42:38.770Z,2.42
2023-03-16T08:45:14.155Z,2.50
2023-03-16T08:47:41.310Z,2.00
2023-03-16T08:50:09.030Z,2.22
2023-03-16T08:52:36.808Z,2.20
2023-03-16T08:55:07.049Z,2.40
2023-03-16T08:57:34.062Z,2.50
2023-03-16T09:00:01.364Z,2.30
2023-03-16T09:02:27.795Z,2.72
2023-03-16T09:04:54.604Z,1.90
2023-03-16T09:07:21.875Z,2.15
2023-03-16T09:09:48.300Z,2.47
2023-03-16T09:12:14.658Z,2.75
2023-03-16T09:14:41.049Z,2.33
2023-03-16T09:17:07.902Z,2.40
2023-03-16T09:19:50.104Z,2.45
2023-03-16T09:22:19.842Z,2.20
2023-03-16T09:24:46.747Z,2.30
2023-03-16T09:27:13.134Z,2.25
2023-03-16T09:29:40.976Z,2.20
2023-03-16T09:32:07.985Z,2.53
2023-03-16T09:34:34.467Z,2.78
2023-03-16T09:37:01.358Z,2.22
2023-03-16T09:39:27.695Z,2.95
2023-03-16T09:42:08.318Z,2.20
2023-03-16T09:45:06.074Z,2.05
2023-03-16T09:47:35.885Z,1.60
2023-03-16T09:50:06.942Z,2.17
2023-03-16T09:52:48.321Z,2.40
2023-03-16T09:55:31.714Z,2.13
2023-03-16T09:57:59.943Z,2.20
2023-03-16T10:00:31.641Z,2.10
2023-03-16T10:03:08.114Z,2.08
2023-03-16T10:05:35.608Z,2.22
2023-03-16T10:08:16.718Z,2.10
2023-03-16T10:11:20.057Z,2.10
2023-03-16T10:13:50.968Z,1.90
2023-03-16T10:16:41.027Z,1.67
2023-03-16T10:19:29.103Z,2.22
2023-03-16T10:22:00.677Z,2.20
2023-03-16T10:24:38.255Z,1.85
2023-03-16T10:27:08.204Z,1.77
2023-03-16T10:29:36.918Z,2.03
2023-03-16T10:32:16.425Z,1.83
2023-03-16T10:34:46.849Z,2.10
2023-03-16T10:37:14.071Z,1.98
2023-03-16T10:39:42.830Z,2.20
2023-03-16T10:42:17.806Z,1.92
2023-03-16T10:44:44.970Z,2.33
2023-03-16T10:47:24.116Z,2.20
2023-03-16T10:49:51.467Z,2.33
2023-03-16T10:52:20.907Z,1.90
2023-03-16T10:54:51.169Z,1.70
2023-03-16T10:57:25.289Z,2.20
2023-03-16T10:59:54.954Z,1.77
2023-03-16T11:02:34.132Z,2.10
2023-03-16T11:05:32.087Z,1.92
2023-03-16T11:08:10.701Z,2.10
2023-03-16T11:10:49.462Z,1.95
2023-03-16T11:13:21.019Z,1.83
2023-03-16T11:16:02.520Z,1.80
2023-03-16T11:18:35.144Z,2.35
2023-03-16T11:21:27.553Z,1.50
2023-03-16T11:23:56.402Z,2.60
2023-03-16T11:26:25.278Z,1.87
2023-03-16T11:29:02.108Z,1.50
2023-03-16T11:31:50.569Z,2.13
2023-03-16T11:34:20.188Z,1.80
2023-03-16T11:37:14.781Z,1.70
2023-03-16T11:40:18.303Z,1.93
2023-03-16T11:43:14.286Z,1.70
2023-03-16T11:46:02.743Z,1.83
2023-03-16T11:48:37.038Z,1.50
2023-03-16T11:51:24.065Z,1.42
2023-03-16T11:53:54.702Z,1.90
2023-03-16T11:56:33.801Z,1.80
2023-03-16T11:59:00.063Z,2.00
2023-03-16T12:01:45.158Z,1.77
2023-03-16T12:04:51.068Z,1.77
2023-03-16T12:07:33.591Z,1.30
2023-03-16T12:10:23.955Z,1.70
2023-03-16T12:13:19.943Z,2.10
2023-03-16T12:15:53.257Z,1.50
2023-03-16T12:18:27.339Z,1.75
2023-03-16T12:21:01.884Z,1.43
2023-03-16T12:23:47.338Z,1.33
2023-03-16T12:26:15.143Z,1.20
2023-03-16T12:28:42.710Z,1.50
2023-03-16T12:31:49.256Z,1.38
2023-03-16T12:34:38.694Z,1.23
2023-03-16T12:37:08.065Z,1.42
2023-03-16T12:39:45.734Z,1.35
2023-03-16T12:42:21.170Z,1.90
2023-03-16T12:45:02.383Z,1.50
2023-03-16T12:47:58.736Z,1.07
2023-03-16T12:50:25.312Z,0.95
2023-03-16T12:52:53.530Z,1.08
2023-03-16T12:55:40.434Z,1.27
2023-03-16T12:58:08.912Z,1.50
2023-03-16T13:00:40.586Z,1.33
2023-03-16T13:03:15.342Z,0.90
2023-03-16T13:05:55.543Z,1.25
2023-03-16T13:08:23.378Z,1.10
2023-03-16T13:11:05.783Z,1.33
2023-03-16T13:13:34.052Z,1.13
2023-03-16T13:16:10.160Z,1.48
2023-03-16T13:18:44.554Z,1.15
2023-03-16T13:21:17.835Z,1.25
2023-03-16T13:23:59.306Z,0.80
2023-03-16T13:26:41.753Z,0.90
2023-03-16T13:29:31.103Z,1.02
2023-03-16T13:32:04.164Z,0.70
2023-03-16T13:34:39.822Z,0.93
2023-03-16T13:37:14.614Z,0.88
2023-03-16T13:39:41.708Z,0.77
2023-03-16T13:42:22.226Z,1.05
2023-03-16T13:44:51.942Z,0.80
2023-03-16T13:47:20.443Z,0.90
2023-03-16T13:49:54.614Z,2.00
2023-03-16T13:52:34.133Z,1.00
2023-03-16T13:55:03.499Z,1.33
2023-03-16T13:57:35.794Z,0.63
2023-03-16T14:00:24.714Z,1.20
2023-03-16T14:02:54.996Z,0.98
2023-03-16T14:05:25.965Z,0.90
2023-03-16T14:07:53.970Z,0.60
2023-03-16T14:10:22.361Z,0.60
2023-03-16T14:12:53.886Z,0.82
2023-03-16T14:15:21.906Z,0.80
2023-03-16T14:17:48.445Z,0.60
2023-03-16T14:20:23.978Z,1.05
2023-03-16T14:22:54.109Z,0.88
2023-03-16T14:25:25.215Z,0.70
2023-03-16T14:28:00.848Z,0.85
2023-03-16T14:30:30.220Z,0.60
2023-03-16T14:32:58.520Z,0.43
2023-03-16T14:35:33.863Z,0.50
2023-03-16T14:38:21.548Z,0.90
2023-03-16T14:40:54.901Z,0.63
2023-03-16T14:43:27.947Z,0.47
2023-03-16T14:45:55.107Z,1.05
2023-03-16T14:48:21.850Z,0.70
2023-03-16T14:50:56.216Z,0.93
2023-03-16T14:53:24.416Z,0.70
2023-03-16T14:55:50.728Z,0.60
2023-03-16T14:58:17.263Z,0.65
2023-03-16T15:00:52.679Z,0.50
2023-03-16T15:03:33.042Z,0.80
2023-03-16T15:06:01.228Z,0.70
2023-03-16T15:08:32.026Z,0.87
2023-03-16T15:11:05.763Z,0.57
2023-03-16T15:13:53.069Z,0.85
2023-03-16T15:16:21.912Z,0.65
2023-03-16T15:18:48.482Z,0.80
2023-03-16T15:21:20.647Z,0.60
2023-03-16T15:23:48.912Z,0.80
2023-03-16T15:26:18.859Z,0.70
2023-03-16T15:28:45.164Z,0.70
2023-03-16T15:31:14.360Z,0.80
2023-03-16T15:33:41.435Z,0.70
2023-03-16T15:36:34.048Z,0.60
2023-03-16T15:39:01.960Z,0.60
2023-03-16T15:41:32.340Z,0.70
2023-03-16T15:44:12.589Z,0.57
2023-03-16T15:46:39.022Z,0.53
2023-03-16T15:49:05.373Z,0.50
2023-03-16T15:51:32.405Z,0.73
2023-03-16T15:54:02.261Z,0.40
2023-03-16T15:56:36.543Z,0.75
2023-03-16T15:59:14.604Z,0.90
2023-03-16T16:01:47.516Z,0.50
2023-03-16T16:04:17.279Z,0.73
2023-03-16T16:06:43.894Z,0.70
2023-03-16T16:09:10.680Z,0.73
2023-03-16T16:11:37.846Z,0.60
2023-03-16T16:14:04.786Z,0.60
2023-03-16T16:16:33.604Z,0.50
2023-03-16T16:19:00.506Z,0.60
2023-03-16T16:21:32.570Z,0.85
2023-03-16T16:23:59.020Z,0.77
2023-03-16T16:26:48.275Z,0.77
2023-03-16T16:29:18.906Z,0.63
2023-03-16T16:31:45.430Z,0.73
2023-03-16T16:34:13.987Z,0.60
2023-03-16T16:36:40.726Z,0.60
2023-03-16T16:39:07.673Z,0.90
2023-03-16T16:41:35.604Z,0.60
2023-03-16T16:44:08.139Z,0.80
2023-03-16T16:46:42.375Z,0.63
2023-03-16T16:49:19.758Z,0.60
2023-03-16T16:51:46.222Z,0.80
2023-03-16T16:54:27.467Z,1.45
2023-03-16T16:56:54.983Z,0.90
2023-03-16T16:59:28.952Z,0.88
2023-03-16T17:01:56.446Z,0.88
2023-03-16T17:04:27.801Z,0.80
2023-03-16T17:06:58.564Z,0.70
2023-03-16T17:09:27.069Z,0.60
2023-03-16T17:11:56.014Z,0.60
2023-03-16T17:14:24.845Z,0.80
2023-03-16T17:16:53.586Z,0.87
2023-03-16T17:19:25.486Z,0.80
2023-03-16T17:21:53.840Z,1.30
2023-03-16T17:24:20.172Z,0.70
2023-03-16T17:26:52.289Z,0.77
2023-03-16T17:29:23.077Z,0.70
2023-03-16T17:31:50.419Z,0.60
2023-03-16T17:34:20.766Z,0.70
2023-03-16T17:36:47.941Z,1.00
2023-03-16T17:39:27.131Z,0.88
2023-03-16T17:42:06.286Z,0.87
2023-03-16T17:44:35.286Z,0.60
2023-03-16T17:47:02.061Z,0.90
2023-03-16T17:49:30.533Z,0.88
2023-03-16T17:51:57.555Z,0.63
2023-03-16T17:54:23.879Z,0.50
2023-03-16T17:56:52.757Z,0.73
2023-03-16T17:59:21.537Z,0.90
2023-03-16T18:01:48.518Z,0.70
2023-03-16T18:04:21.134Z,0.63
2023-03-16T18:06:48.040Z,0.77
2023-03-16T18:09:15.991Z,0.90
2023-03-16T18:11:47.888Z,1.35
2023-03-16T18:14:25.209Z,1.15
2023-03-16T18:16:52.454Z,1.10
2023-03-16T18:19:25.133Z,1.10
2023-03-16T18:21:53.500Z,1.08
2023-03-16T18:24:23.242Z,1.65
2023-03-16T18:26:49.981Z,1.20
2023-03-16T18:29:16.533Z,1.13
2023-03-16T18:31:45.780Z,1.27
2023-03-16T18:34:21.517Z,1.45
2023-03-16T18:36:47.839Z,1.25
2023-03-16T18:39:21.196Z,1.13
2023-03-16T18:41:48.090Z,1.15
2023-03-16T18:44:20.656Z,1.17
2023-03-16T18:46:48.327Z,1.08
2023-03-16T18:49:20.577Z,0.98
2023-03-16T18:51:51.151Z,1.00
2023-03-16T18:54:22.626Z,1.23
2023-03-16T18:56:50.037Z,1.00
2023-03-16T18:59:16.855Z,1.67
2023-03-16T19:01:45.031Z,1.40
2023-03-16T19:04:23.821Z,0.82
2023-03-16T19:06:53.341Z,1.17
2023-03-16T19:09:26.933Z,0.77
2023-03-16T19:11:53.535Z,1.00
2023-03-16T19:14:22.476Z,0.90
2023-03-16T19:16:49.279Z,1.02
2023-03-16T19:19:16.886Z,1.25
2023-03-16T19:21:43.651Z,0.80
2023-03-16T19:24:22.011Z,0.93
2023-03-16T19:26:48.750Z,0.60
2023-03-16T19:29:15.782Z,0.75
2023-03-16T19:31:42.283Z,1.23
2023-03-16T19:34:17.884Z,0.90
2023-03-16T19:36:44.715Z,0.77
2023-03-16T19:39:13.997Z,0.60
2023-03-16T19:41:40.697Z,0.80
2023-03-16T19:44:13.619Z,0.70
2023-03-16T19:46:40.417Z,0.90
2023-03-16T19:49:15.423Z,0.63
2023-03-16T19:51:41.920Z,0.70
2023-03-16T19:54:36.808Z,0.95
2023-03-16T19:57:10.052Z,0.80
2023-03-16T19:59:37.238Z,1.10
2023-03-16T20:02:23.485Z,0.80
2023-03-16T20:04:49.797Z,1.48
2023-03-16T20:07:17.076Z,1.45
2023-03-16T20:09:44.139Z,0.93
2023-03-16T20:12:28.863Z,1.20
2023-03-16T20:14:56.542Z,0.80
2023-03-16T20:17:26.901Z,0.80
2023-03-16T20:19:54.815Z,0.85
2023-03-16T20:22:23.795Z,1.27
2023-03-16T20:24:51.037Z,1.10
2023-03-16T20:27:21.115Z,1.02
2023-03-16T20:29:48.127Z,0.90
2023-03-16T20:32:22.776Z,0.82
2023-03-16T20:34:51.211Z,1.27
2023-03-16T20:37:26.720Z,1.10
2023-03-16T20:39:54.843Z,1.05
2023-03-16T20:42:25.734Z,1.13
2023-03-16T20:44:52.254Z,1.00
2023-03-16T20:47:24.430Z,1.10
2023-03-16T20:49:52.377Z,0.90
2023-03-16T20:52:30.095Z,1.30
2023-03-16T20:54:59.359Z,1.08
2023-03-16T20:57:28.984Z,1.10
2023-03-16T20:59:56.371Z,1.13
2023-03-16T21:02:38.475Z,1.10
2023-03-16T21:05:06.915Z,1.48
2023-03-16T21:07:33.393Z,1.75
2023-03-16T21:09:59.799Z,1.60
2023-03-16T21:12:32.636Z,1.50
2023-03-16T21:15:00.256Z,1.10
2023-03-16T21:17:31.782Z,1.35
2023-03-16T21:20:00.203Z,1.27
2023-03-16T21:22:32.422Z,1.45
2023-03-16T21:24:58.866Z,1.35
2023-03-16T21:27:28.670Z,1.53
2023-03-16T21:29:56.991Z,0.98
2023-03-16T21:32:27.714Z,1.83
2023-03-16T21:34:55.223Z,1.38
2023-03-16T21:37:25.806Z,1.10
2023-03-16T21:39:52.261Z,1.10
2023-03-16T21:42:19.502Z,1.35
2023-03-16T21:44:46.190Z,1.23
2023-03-16T21:47:24.886Z,1.33
2023-03-16T21:49:53.659Z,1.15
2023-03-16T21:52:25.640Z,1.47
2023-03-16T21:54:53.102Z,1.23
2023-03-16T21:57:19.739Z,1.02
2023-03-16T21:59:46.524Z,0.90
2023-03-16T22:02:23.688Z,0.82
2023-03-16T22:04:51.063Z,1.00
2023-03-16T22:07:18.297Z,0.82
2023-03-16T22:09:45.274Z,1.00
2023-03-16T22:12:13.608Z,1.25
2023-03-16T22:14:40.046Z,1.15
2023-03-16T22:17:08.644Z,0.90
2023-03-16T22:19:35.188Z,0.90
2023-03-16T22:22:01.635Z,0.77
2023-03-16T22:24:30.303Z,1.13
2023-03-16T22:26:57.092Z,1.17
2023-03-16T22:29:29.097Z,1.00
2023-03-16T22:32:12.387Z,0.88
2023-03-16T22:34:55.800Z,1.48
2023-03-16T22:37:25.513Z,1.30
2023-03-16T22:39:52.892Z,0.93
2023-03-16T22:42:25.021Z,1.23
2023-03-16T22:44:51.409Z,1.10
2023-03-16T22:47:26.989Z,1.00
2023-03-16T22:49:53.940Z,1.02
2023-03-16T22:52:25.461Z,1.35
2023-03-16T22:54:52.429Z,1.77
2023-03-16T22:57:18.863Z,1.00
2023-03-16T22:59:47.180Z,1.30
2023-03-16T23:02:15.028Z,1.13
2023-03-16T23:04:41.774Z,1.45
2023-03-16T23:07:13.126Z,1.63
2023-03-16T23:09:39.966Z,1.00
2023-03-16T23:12:22.959Z,1.23
2023-03-16T23:14:49.292Z,1.42
2023-03-16T23:17:18.553Z,1.05
2023-03-16T23:19:45.585Z,1.40
2023-03-16T23:22:12.173Z,1.48
2023-03-16T23:24:38.558Z,1.45
2023-03-16T23:27:13.754Z,1.30
2023-03-16T23:29:41.040Z,1.90
2023-03-16T23:32:09.329Z,1.60
2023-03-16T23:34:35.870Z,1.75
2023-03-16T23:37:02.171Z,1.65
2023-03-16T23:39:28.966Z,1.30
2023-03-16T23:41:56.201Z,1.60
2023-03-16T23:44:26.020Z,1.60
2023-03-16T23:46:52.760Z,1.70
2023-03-16T23:49:22.226Z,1.27
2023-03-16T23:51:49.031Z,1.63
2023-03-16T23:54:19.857Z,1.52
2023-03-16T23:56:46.261Z,1.60
2023-03-16T23:59:12.606Z,1.23
